Terminal Aerodrome Forecast
Issued by NWS

Home | Current Version | Previous Version | Text Only | Print | Product List | Glossary On
Versions: 1 2 3 4 5 6 7 8 9 10 11 12 13 14 15 16 17 18 19 20 21 22 23 24 25 26
039
FTUS43 KDLH 060822 AAA
TAFHYR
TAF AMD
KHYR 060822Z 0608/0706 23002KT P6SM SCT007 OVC020
      TEMPO 0608/0612 4SM BR OVC009
     FM061200 20006KT P6SM BKN025
     FM061800 19008G16KT P6SM SCT025 BKN060
     FM070000 19012KT 6SM -SN SCT010 OVC030=

USA.gov is the U.S. government's official web portal to all federal, state and local government web resources and services.